Time;durP1;ratioP1;P1;durP2;ratioP2;P2;SDS_P1;SDS_P2;PMS_P1;PMS_P2;Temp;Humidity;BMP_temperature;BMP_pressure;BME280_temperature;BME280_humidity;BME280_pressure;Samples;Min_cycle;Max_cycle;Signal;HPM_P1;HPM_P2
2023/03/22 00:01:59;;;;;;;7.60;5.15;;;;;;;6.76;100.00;98192.13;4157758;28;20525;-73
2023/03/22 00:03:59;;;;;;;10.27;4.88;;;;;;;6.72;100.00;98186.56;4157343;28;20520;-73
2023/03/22 00:06:00;;;;;;;8.25;5.38;;;;;;;6.85;100.00;98192.72;4157258;28;20509;-73
2023/03/22 00:08:04;;;;;;;8.00;5.35;;;;;;;6.90;100.00;98192.44;4158551;28;20284;-73
2023/03/22 00:10:05;;;;;;;7.72;5.40;;;;;;;6.92;100.00;98198.38;4157445;28;20052;-73
2023/03/22 00:12:05;;;;;;;6.60;5.07;;;;;;;6.91;100.00;98190.47;4157687;28;20397;-73
2023/03/22 00:14:06;;;;;;;7.60;4.88;;;;;;;6.94;100.00;98195.25;4157251;28;20025;-73
2023/03/22 00:16:07;;;;;;;6.15;4.22;;;;;;;6.92;100.00;98192.88;4157216;28;20717;-73
2023/03/22 00:18:11;;;;;;;6.30;4.28;;;;;;;6.91;100.00;98198.72;4157775;28;20432;-73
2023/03/22 00:20:11;;;;;;;6.78;4.65;;;;;;;6.91;100.00;98194.03;4157839;28;20034;-73
2023/03/22 00:22:13;;;;;;;8.02;5.50;;;;;;;6.92;100.00;98192.06;4156936;28;20381;-72
2023/03/22 00:24:13;;;;;;;7.45;4.90;;;;;;;6.87;100.00;98189.59;4157088;28;20297;-72
2023/03/22 00:26:14;;;;;;;7.25;4.18;;;;;;;6.78;100.00;98189.81;4188861;28;20032;-72
2023/03/22 00:28:15;;;;;;;8.98;5.50;;;;;;;6.68;100.00;98188.41;4157466;28;20030;-72
2023/03/22 00:30:15;;;;;;;8.52;5.05;;;;;;;6.58;100.00;98190.94;4157797;28;20037;-73
2023/03/22 00:32:16;;;;;;;5.63;4.38;;;;;;;6.55;100.00;98189.72;4156425;28;20025;-73
2023/03/22 00:34:16;;;;;;;7.95;4.65;;;;;;;6.52;100.00;98195.91;4156694;28;20445;-73
2023/03/22 00:36:17;;;;;;;6.88;4.22;;;;;;;6.52;100.00;98184.91;4157098;28;20470;-73
2023/03/22 00:38:17;;;;;;;9.82;4.53;;;;;;;6.41;100.00;98184.66;4157087;28;20026;-73
2023/03/22 00:40:18;;;;;;;5.75;4.05;;;;;;;6.31;100.00;98184.44;4157092;28;20036;-73
2023/03/22 00:42:18;;;;;;;6.43;4.38;;;;;;;6.25;100.00;98181.16;4157653;28;20036;-72
2023/03/22 00:44:18;;;;;;;11.23;4.05;;;;;;;6.19;100.00;98183.38;4157280;28;20201;-73
2023/03/22 00:46:20;;;;;;;6.75;4.65;;;;;;;6.15;100.00;98179.75;4157425;28;20037;-73
2023/03/22 00:48:21;;;;;;;5.45;4.35;;;;;;;6.14;100.00;98183.66;4157275;28;20517;-73
2023/03/22 00:50:21;;;;;;;8.48;4.05;;;;;;;6.19;100.00;98182.56;4156511;28;20061;-73
2023/03/22 00:52:22;;;;;;;7.95;4.45;;;;;;;6.17;100.00;98171.94;4157664;28;20067;-73
2023/03/22 00:54:22;;;;;;;6.45;4.38;;;;;;;6.16;100.00;98178.59;4156850;28;20057;-73
2023/03/22 00:56:24;;;;;;;6.88;4.85;;;;;;;6.13;100.00;98184.00;4157046;28;20041;-73
2023/03/22 00:58:24;;;;;;;6.15;4.50;;;;;;;6.10;100.00;98174.50;4158015;28;20087;-73
2023/03/22 01:00:25;;;;;;;5.57;4.18;;;;;;;6.11;100.00;98170.63;4156797;28;20394;-73
2023/03/22 01:02:28;;;;;;;7.45;5.00;;;;;;;6.10;100.00;98174.50;4156672;28;20508;-73
2023/03/22 01:04:30;;;;;;;6.43;4.40;;;;;;;6.01;100.00;98171.16;4155917;28;20437;-73
2023/03/22 01:06:31;;;;;;;7.05;4.38;;;;;;;5.93;100.00;98174.88;4157181;28;20481;-72
2023/03/22 01:08:32;;;;;;;8.20;4.90;;;;;;;5.87;100.00;98177.06;4157460;28;20034;-73
2023/03/22 01:10:33;;;;;;;6.45;4.50;;;;;;;5.89;100.00;98179.47;4156797;28;20095;-73
2023/03/22 01:12:33;;;;;;;5.32;3.97;;;;;;;5.92;100.00;98170.53;4156191;28;20482;-72
2023/03/22 01:14:34;;;;;;;10.27;5.82;;;;;;;5.86;100.00;98171.91;4157180;28;20056;-73
2023/03/22 01:16:36;;;;;;;7.30;4.32;;;;;;;5.81;100.00;98169.47;4157613;28;20072;-72
2023/03/22 01:18:36;;;;;;;8.15;4.22;;;;;;;5.73;100.00;98168.47;4156985;28;20087;-72
2023/03/22 01:20:36;;;;;;;9.55;4.85;;;;;;;5.71;100.00;98168.03;4157374;28;20424;-72
2023/03/22 01:22:37;;;;;;;7.57;4.70;;;;;;;5.72;100.00;98163.34;4156201;28;20047;-72
2023/03/22 01:24:37;;;;;;;7.97;4.53;;;;;;;5.64;100.00;98156.88;4156037;28;20037;-72
2023/03/22 01:26:37;;;;;;;7.57;4.75;;;;;;;5.57;100.00;98160.22;4157694;28;20046;-72
2023/03/22 01:28:39;;;;;;;7.32;5.13;;;;;;;5.61;100.00;98161.09;4157696;28;20125;-72
2023/03/22 01:30:39;;;;;;;7.13;4.57;;;;;;;5.57;100.00;98168.47;4157821;28;20068;-72
2023/03/22 01:32:40;;;;;;;8.18;4.82;;;;;;;5.58;100.00;98161.81;4156401;28;20478;-72
2023/03/22 01:34:40;;;;;;;6.75;4.63;;;;;;;5.49;100.00;98161.19;4157582;28;20034;-72
2023/03/22 01:36:40;;;;;;;8.35;4.82;;;;;;;5.49;100.00;98163.94;4157694;28;20048;-73
2023/03/22 01:38:41;;;;;;;7.63;5.65;;;;;;;5.49;100.00;98158.44;4157544;28;20034;-72
2023/03/22 01:40:41;;;;;;;9.50;6.00;;;;;;;5.59;100.00;98148.91;4157845;28;20038;-73
2023/03/22 01:42:41;;;;;;;12.88;6.88;;;;;;;5.68;100.00;98151.47;4156760;28;20041;-72
2023/03/22 01:44:43;;;;;;;13.25;7.13;;;;;;;5.83;100.00;98156.16;4157122;28;20042;-72
2023/03/22 01:46:46;;;;;;;12.80;8.68;;;;;;;6.03;100.00;98141.38;4157947;28;20506;-72
2023/03/22 01:48:47;;;;;;;16.20;8.57;;;;;;;6.18;100.00;98143.31;4158892;28;20075;-72
2023/03/22 01:50:57;;;;;;;12.00;7.55;;;;;;;6.31;100.00;98140.47;4160900;28;20041;-72
2023/03/22 01:52:59;;;;;;;13.23;7.63;;;;;;;6.38;100.00;98129.66;4160541;28;20069;-72
2023/03/22 01:55:00;;;;;;;11.00;7.28;;;;;;;6.45;100.00;98129.78;4160408;28;20046;-72
2023/03/22 01:57:02;;;;;;;10.85;7.30;;;;;;;6.57;100.00;98126.13;4160560;28;20033;-72
2023/03/22 01:59:03;;;;;;;12.98;7.35;;;;;;;6.79;100.00;98122.69;4160813;28;20136;-72
2023/03/22 02:01:06;;;;;;;13.98;7.15;;;;;;;6.81;100.00;98109.34;4160774;28;20038;-72
2023/03/22 02:03:07;;;;;;;11.93;8.32;;;;;;;6.88;100.00;98106.75;4159541;28;20492;-72
2023/03/22 02:05:08;;;;;;;15.90;8.15;;;;;;;6.89;100.00;98115.78;4160550;28;20057;-72
2023/03/22 02:07:14;;;;;;;10.90;7.18;;;;;;;6.95;100.00;98114.31;4160619;28;20848;-72
2023/03/22 02:09:20;;;;;;;11.32;7.20;;;;;;;6.91;100.00;98110.72;4160833;28;20136;-73
2023/03/22 02:11:28;;;;;;;13.88;7.97;;;;;;;6.93;100.00;98114.69;4161127;28;20525;-73
2023/03/22 02:13:51;;;;;;;13.70;8.18;;;;;;;6.91;100.00;98117.00;4160063;28;20107;-72
2023/03/22 02:16:21;;;;;;;10.10;7.97;;;;;;;6.95;100.00;98103.31;4159637;28;20045;-72
2023/03/22 02:18:56;;;;;;;12.45;6.80;;;;;;;7.00;100.00;98100.28;4158821;28;20054;-73
2023/03/22 02:21:21;;;;;;;10.82;6.85;;;;;;;7.07;100.00;98105.13;4160633;28;20052;-72
2023/03/22 02:24:00;;;;;;;12.45;7.35;;;;;;;7.04;100.00;98104.72;4159959;28;20137;-72
2023/03/22 02:26:25;;;;;;;10.75;7.57;;;;;;;7.09;100.00;98089.84;4159657;28;20045;-72
2023/03/22 02:28:31;;;;;;;11.77;7.60;;;;;;;7.15;100.00;98099.41;4160208;28;20049;-72
2023/03/22 02:31:08;;;;;;;12.32;7.55;;;;;;;7.16;100.00;98112.00;4159813;28;20045;-72
2023/03/22 02:33:27;;;;;;;14.23;8.55;;;;;;;7.16;100.00;98100.19;4159606;28;20446;-72
2023/03/22 02:35:37;;;;;;;11.98;7.57;;;;;;;7.15;100.00;98104.91;4160074;28;20446;-72
2023/03/22 02:37:48;;;;;;;12.35;8.13;;;;;;;7.12;100.00;98102.09;4160116;28;20385;-72
2023/03/22 02:40:16;;;;;;;11.20;7.65;;;;;;;7.14;100.00;98111.56;4160376;28;20041;-72
2023/03/22 02:42:16;;;;;;;12.57;7.60;;;;;;;7.15;100.00;98095.88;4159906;28;20128;-72
2023/03/22 02:44:33;;;;;;;12.00;8.07;;;;;;;7.19;100.00;98099.47;4159326;28;20072;-72
2023/03/22 02:46:43;;;;;;;14.25;8.27;;;;;;;7.16;100.00;98098.25;4159320;28;20077;-72
2023/03/22 02:49:11;;;;;;;10.45;7.40;;;;;;;7.12;100.00;98100.16;4159992;28;20399;-72
2023/03/22 02:51:18;;;;;;;11.00;7.50;;;;;;;7.17;100.00;98102.59;4160305;28;20092;-72
2023/03/22 02:53:37;;;;;;;15.57;8.35;;;;;;;7.16;100.00;98098.25;4159351;28;20051;-72
2023/03/22 02:56:01;;;;;;;14.52;7.50;;;;;;;7.21;100.00;98091.66;4159815;28;20099;-72
2023/03/22 02:58:22;;;;;;;11.43;7.38;;;;;;;7.18;100.00;98092.38;4159652;28;20454;-72
2023/03/22 03:00:24;;;;;;;13.15;8.10;;;;;;;7.15;100.00;98088.41;4158540;28;20461;-72
2023/03/22 03:02:26;;;;;;;14.93;8.48;;;;;;;7.13;100.00;98089.94;4159778;28;20042;-72
2023/03/22 03:04:34;;;;;;;14.30;7.97;;;;;;;7.09;100.00;98089.06;4159604;28;20038;-72
2023/03/22 03:06:39;;;;;;;13.40;8.60;;;;;;;7.09;100.00;98094.56;4158573;28;20091;-72
2023/03/22 03:08:40;;;;;;;14.70;8.98;;;;;;;7.06;100.00;98085.09;4159796;28;20655;-72
2023/03/22 03:10:41;;;;;;;13.55;8.20;;;;;;;7.06;100.00;98074.09;4159971;28;20042;-72
2023/03/22 03:12:41;;;;;;;15.30;9.43;;;;;;;7.10;100.00;98079.63;4159183;28;20034;-72
2023/03/22 03:14:42;;;;;;;13.75;9.48;;;;;;;7.11;100.00;98083.97;4159395;28;20363;-72
2023/03/22 03:16:42;;;;;;;11.45;7.95;;;;;;;7.14;100.00;98083.28;4158999;28;20049;-72
2023/03/22 03:18:53;;;;;;;12.10;7.78;;;;;;;7.12;100.00;98083.63;4159771;28;20129;-72
2023/03/22 03:21:03;;;;;;;12.88;8.07;;;;;;;7.12;100.00;98086.38;4159537;28;20124;-72
2023/03/22 03:23:23;;;;;;;12.45;7.72;;;;;;;7.14;100.00;98091.53;4159217;28;20492;-72
2023/03/22 03:25:37;;;;;;;12.35;8.10;;;;;;;7.12;100.00;98094.66;4159183;28;20036;-72
2023/03/22 03:27:48;;;;;;;12.27;8.02;;;;;;;7.15;100.00;98093.09;4159389;28;20080;-72
2023/03/22 03:30:25;;;;;;;13.50;8.52;;;;;;;7.15;100.00;98085.66;4158808;28;20052;-72
2023/03/22 03:32:34;;;;;;;11.82;7.45;;;;;;;7.18;100.00;98093.16;4142079;28;20041;-72
2023/03/22 03:34:48;;;;;;;12.07;6.90;;;;;;;7.19;100.00;98088.47;4142927;28;20038;-72
2023/03/22 03:37:00;;;;;;;11.95;7.63;;;;;;;7.18;100.00;98092.38;4143036;28;20054;-72
2023/03/22 03:39:03;;;;;;;10.10;7.05;;;;;;;7.17;100.00;98088.81;4143509;28;20038;-72
2023/03/22 03:41:05;;;;;;;;;;;;;;;7.26;100.00;98094.09;4143305;28;20062;-72
2023/03/22 03:43:07;;;;;;;13.25;7.82;;;;;;;7.29;100.00;98090.63;4142210;28;20444;-72
2023/03/22 03:45:09;;;;;;;12.82;8.32;;;;;;;7.30;100.00;98087.50;4142200;28;20411;-72
2023/03/22 03:47:11;;;;;;;10.73;7.03;;;;;;;7.26;100.00;98086.63;4142868;28;20057;-72
2023/03/22 03:49:14;;;;;;;14.85;8.10;;;;;;;7.23;100.00;98086.56;4142658;28;20054;-72
2023/03/22 03:51:14;;;;;;;;;;;;;;;7.17;100.00;98091.56;4143451;28;20046;-72
2023/03/22 03:53:14;;;;;;;12.25;7.18;;;;;;;7.13;100.00;98098.19;4141951;28;20247;-72
2023/03/22 03:55:15;;;;;;;12.38;8.15;;;;;;;7.08;100.00;98088.25;4143150;28;20150;-72
2023/03/22 03:57:15;;;;;;;14.00;7.20;;;;;;;7.04;100.00;98092.91;4142284;28;20050;-72
2023/03/22 03:59:17;;;;;;;13.07;7.60;;;;;;;6.96;100.00;98082.94;4142806;28;20038;-72
2023/03/22 04:01:19;;;;;;;9.75;7.32;;;;;;;6.90;100.00;98092.63;4153823;28;20561;-72
2023/03/22 04:03:20;;;;;;;9.63;7.65;;;;;;;6.78;100.00;98092.75;4157756;28;20088;-72
2023/03/22 04:05:20;;;;;;;15.15;8.43;;;;;;;6.71;100.00;98090.69;4158796;28;20045;-72
2023/03/22 04:07:20;;;;;;;12.18;7.97;;;;;;;6.65;100.00;98090.19;4158446;28;20049;-72
2023/03/22 04:09:26;;;;;;;9.55;6.82;;;;;;;6.57;100.00;98087.63;4159078;28;20041;-72
2023/03/22 04:11:26;;;;;;;10.68;6.80;;;;;;;6.47;100.00;98083.53;4159335;28;20038;-72
2023/03/22 04:13:28;;;;;;;10.90;7.60;;;;;;;6.40;100.00;98086.91;4157544;28;20044;-72
2023/03/22 04:15:29;;;;;;;10.80;7.53;;;;;;;6.30;100.00;98084.72;4159296;28;20045;-72
2023/03/22 04:17:30;;;;;;;12.93;8.20;;;;;;;6.33;100.00;98086.75;4158837;28;20509;-72
2023/03/22 04:19:31;;;;;;;10.73;7.32;;;;;;;6.38;100.00;98080.97;4158751;28;20374;-72
2023/03/22 04:21:31;;;;;;;13.43;7.85;;;;;;;6.43;100.00;98088.91;4158280;28;20099;-72
2023/03/22 04:23:32;;;;;;;12.13;7.82;;;;;;;6.53;100.00;98090.31;4157982;28;20049;-72
2023/03/22 04:25:32;;;;;;;9.88;7.50;;;;;;;6.58;100.00;98095.53;4158373;28;20049;-72
2023/03/22 04:27:33;;;;;;;11.57;7.22;;;;;;;6.63;100.00;98094.44;4157886;28;20055;-72
2023/03/22 04:29:35;;;;;;;10.40;7.10;;;;;;;6.74;100.00;98099.00;4158453;28;20140;-72
2023/03/22 04:31:35;;;;;;;10.88;7.60;;;;;;;6.77;100.00;98102.97;4158711;28;20048;-72
2023/03/22 04:33:38;;;;;;;11.55;7.80;;;;;;;6.76;100.00;98099.44;4157858;28;20038;-72
2023/03/22 04:35:38;;;;;;;10.82;7.47;;;;;;;6.84;100.00;98088.56;4158425;28;20041;-72
2023/03/22 04:37:38;;;;;;;10.27;7.13;;;;;;;6.88;100.00;98087.50;4158195;28;20049;-72
2023/03/22 04:39:39;;;;;;;13.10;7.85;;;;;;;6.90;100.00;98085.19;4158911;28;20041;-72
2023/03/22 04:41:39;;;;;;;14.63;7.00;;;;;;;6.93;100.00;98067.94;4158000;28;20041;-72
2023/03/22 04:43:40;;;;;;;12.52;7.95;;;;;;;6.89;100.00;98071.78;4157022;28;20127;-72
2023/03/22 04:45:40;;;;;;;11.40;7.97;;;;;;;6.84;100.00;98069.31;4158963;28;20252;-72
2023/03/22 04:47:41;;;;;;;10.50;7.22;;;;;;;6.85;100.00;98070.91;4158079;28;20052;-72
2023/03/22 04:49:41;;;;;;;11.80;8.00;;;;;;;6.81;100.00;98067.31;4158334;28;20053;-72
2023/03/22 04:51:41;;;;;;;13.85;8.70;;;;;;;6.80;100.00;98063.78;4158301;28;20424;-72
2023/03/22 04:53:42;;;;;;;13.95;8.77;;;;;;;6.83;100.00;98068.53;4157411;28;20037;-72
2023/03/22 04:55:42;;;;;;;14.93;8.98;;;;;;;6.81;100.00;98059.84;4158032;28;20141;-72
2023/03/22 04:57:42;;;;;;;11.52;7.47;;;;;;;6.81;100.00;98053.56;4157704;28;20123;-72
2023/03/22 04:59:43;;;;;;;11.85;8.02;;;;;;;6.73;100.00;98047.91;4158314;28;20069;-72
2023/03/22 05:01:43;;;;;;;12.60;7.85;;;;;;;6.72;100.00;98040.03;4158031;28;20041;-72
2023/03/22 05:03:46;;;;;;;11.43;7.97;;;;;;;6.70;100.00;98034.09;4157032;28;20124;-72
2023/03/22 05:05:57;;;;;;;10.27;7.35;;;;;;;6.66;100.00;98034.03;4157748;28;20106;-72
2023/03/22 05:07:57;;;;;;;11.55;7.95;;;;;;;6.66;100.00;98034.03;4158262;28;20561;-72
2023/03/22 05:09:57;;;;;;;13.57;7.72;;;;;;;6.65;100.00;98037.16;4157926;28;20088;-72
2023/03/22 05:11:58;;;;;;;16.15;8.73;;;;;;;6.63;100.00;98036.72;4157459;28;20176;-72
2023/03/22 05:13:58;;;;;;;14.30;7.85;;;;;;;6.64;100.00;98033.59;4157127;28;20048;-72
2023/03/22 05:15:59;;;;;;;11.88;7.45;;;;;;;6.65;100.00;98032.44;4157572;28;20072;-72
2023/03/22 05:17:59;;;;;;;11.93;8.38;;;;;;;6.61;100.00;98028.03;4158334;28;20072;-72
2023/03/22 05:20:07;;;;;;;12.75;8.50;;;;;;;6.65;100.00;98029.69;4157680;28;20358;-72
2023/03/22 05:22:10;;;;;;;12.48;8.00;;;;;;;6.64;100.00;98030.06;4157130;28;20049;-72
2023/03/22 05:24:11;;;;;;;12.45;7.63;;;;;;;6.62;100.00;98029.59;4156700;28;20021;-72
2023/03/22 05:26:14;;;;;;;13.10;8.23;;;;;;;6.60;100.00;98032.72;4157135;28;20773;-72
2023/03/22 05:28:18;;;;;;;11.90;7.60;;;;;;;6.60;100.00;98032.72;4158241;28;20038;-72
2023/03/22 05:30:19;;;;;;;10.88;6.78;;;;;;;6.59;100.00;98028.38;4157945;28;20037;-72
2023/03/22 05:32:24;;;;;;;11.27;7.70;;;;;;;6.58;100.00;98029.56;4157516;28;20060;-72
2023/03/22 05:34:34;;;;;;;9.68;7.25;;;;;;;6.57;100.00;98032.66;4157133;28;20045;-72
2023/03/22 05:36:35;;;;;;;14.77;7.78;;;;;;;6.57;100.00;98038.16;4157518;28;20049;-72
2023/03/22 05:38:36;;;;;;;12.07;7.78;;;;;;;6.53;100.00;98035.31;4157592;28;20077;-72
2023/03/22 05:40:36;;;;;;;10.13;7.10;;;;;;;6.52;100.00;98047.47;4157554;28;20136;-72
2023/03/22 05:42:36;;;;;;;12.05;7.45;;;;;;;6.54;100.00;98030.63;4157021;28;20484;-72
2023/03/22 05:44:37;;;;;;;9.02;6.53;;;;;;;6.56;100.00;98036.56;4157689;28;20072;-72
2023/03/22 05:46:37;;;;;;;11.60;7.95;;;;;;;6.56;100.00;98044.81;4157319;28;20045;-72
2023/03/22 05:48:39;;;;;;;11.93;7.80;;;;;;;6.56;100.00;98044.81;4157701;28;20284;-72
2023/03/22 05:50:39;;;;;;;11.23;7.80;;;;;;;6.55;100.00;98043.25;4157659;28;20041;-72
2023/03/22 05:52:41;;;;;;;10.00;7.30;;;;;;;6.49;100.00;98037.22;4107410;28;20038;-72
2023/03/22 05:54:42;;;;;;;12.88;7.60;;;;;;;6.48;100.00;98036.44;4157207;28;20450;-72
2023/03/22 05:56:43;;;;;;;10.13;7.47;;;;;;;6.46;100.00;98052.50;4156581;28;20040;-72
2023/03/22 05:58:43;;;;;;;13.00;8.52;;;;;;;6.44;100.00;98046.53;4157333;28;20133;-72
2023/03/22 06:00:45;;;;;;;13.75;7.60;;;;;;;6.44;100.00;98051.25;4157245;28;20069;-72
2023/03/22 06:02:47;;;;;;;9.98;7.13;;;;;;;6.44;100.00;98048.50;4157375;28;20053;-72
2023/03/22 06:04:48;;;;;;;10.60;7.57;;;;;;;6.42;100.00;98050.81;4157241;28;20037;-72
2023/03/22 06:06:49;;;;;;;11.35;7.07;;;;;;;6.44;100.00;98052.03;4156414;28;20045;-72
2023/03/22 06:08:49;;;;;;;12.27;7.47;;;;;;;6.44;100.00;98045.75;4157912;28;20281;-72
2023/03/22 06:10:50;;;;;;;13.13;7.85;;;;;;;6.44;100.00;98057.53;4157254;28;20462;-72
2023/03/22 06:12:52;;;;;;;11.00;7.38;;;;;;;6.43;100.00;98053.19;4156694;28;20079;-72
2023/03/22 06:14:52;;;;;;;11.60;7.53;;;;;;;6.45;100.00;98055.56;4157402;28;20055;-72
2023/03/22 06:16:52;;;;;;;11.27;8.00;;;;;;;6.50;100.00;98063.53;4157485;28;20136;-72
2023/03/22 06:18:52;;;;;;;12.50;7.85;;;;;;;6.49;100.00;98061.97;4157064;28;20457;-72
2023/03/22 06:20:53;;;;;;;10.63;7.22;;;;;;;6.50;100.00;98068.25;4157567;28;20430;-72
2023/03/22 06:22:53;;;;;;;11.38;8.02;;;;;;;6.52;100.00;98063.97;4156845;28;20037;-72
2023/03/22 06:24:54;;;;;;;12.75;7.75;;;;;;;6.52;100.00;98069.47;4156709;28;20081;-72
2023/03/22 06:26:54;;;;;;;11.15;7.80;;;;;;;6.55;100.00;98066.03;4157071;28;20082;-72
2023/03/22 06:28:55;;;;;;;10.75;8.02;;;;;;;6.54;100.00;98063.59;4157388;28;20048;-72
2023/03/22 06:30:55;;;;;;;11.98;7.60;;;;;;;6.57;100.00;98066.44;4157613;28;20055;-72
2023/03/22 06:32:59;;;;;;;9.90;7.60;;;;;;;6.59;100.00;98064.13;4155920;28;20045;-72
2023/03/22 06:34:59;;;;;;;11.50;8.77;;;;;;;6.59;100.00;98064.13;4156623;28;20049;-72
2023/03/22 06:37:00;;;;;;;14.02;9.10;;;;;;;6.70;100.00;98073.41;4160782;28;20129;-72
2023/03/22 06:39:01;;;;;;;16.73;9.48;;;;;;;6.74;100.00;98065.22;4151891;28;20038;-72
2023/03/22 06:41:02;;;;;;;15.30;9.50;;;;;;;6.78;100.00;98071.56;4150784;28;20132;-72
2023/03/22 06:43:02;;;;;;;15.23;8.20;;;;;;;6.72;100.00;98062.84;4159293;28;20076;-72
2023/03/22 06:45:03;;;;;;;14.73;10.40;;;;;;;6.70;100.00;98067.91;4160143;28;20820;-72
2023/03/22 06:47:04;;;;;;;16.45;9.10;;;;;;;6.74;100.00;98082.50;4160176;28;20044;-72
2023/03/22 06:49:04;;;;;;;16.35;9.23;;;;;;;6.74;100.00;98068.75;4160060;28;20033;-72
2023/03/22 06:51:05;;;;;;;14.98;9.43;;;;;;;6.76;100.00;98079.38;4160285;28;20477;-72
2023/03/22 06:53:06;;;;;;;15.93;9.45;;;;;;;6.75;100.00;98070.34;4159008;28;20033;-72
2023/03/22 06:55:07;;;;;;;16.13;9.68;;;;;;;6.83;100.00;98076.00;4159988;28;20046;-72
2023/03/22 06:57:07;;;;;;;13.98;8.63;;;;;;;6.88;100.00;98072.97;4159371;28;20075;-72
2023/03/22 06:59:08;;;;;;;14.45;8.30;;;;;;;7.05;100.00;98069.75;4160472;28;20042;-72
2023/03/22 07:01:08;;;;;;;15.00;7.85;;;;;;;7.18;100.00;98079.41;4160047;28;20049;-72
2023/03/22 07:03:09;;;;;;;11.65;7.43;;;;;;;7.30;100.00;98072.94;4159378;28;20107;-72
2023/03/22 07:05:09;;;;;;;13.38;7.35;;;;;;;7.40;100.00;98077.06;4160247;28;20053;-72
2023/03/22 07:07:10;;;;;;;10.88;7.20;;;;;;;7.47;100.00;98063.41;4159610;28;20034;-72
2023/03/22 07:09:11;;;;;;;11.93;7.30;;;;;;;7.51;100.00;98064.25;4159397;28;20048;-72
2023/03/22 07:11:11;;;;;;;21.52;8.00;;;;;;;7.56;100.00;98061.22;4159754;28;20390;-72
2023/03/22 07:13:11;;;;;;;10.15;7.03;;;;;;;7.59;100.00;98072.25;4158984;28;20045;-72
2023/03/22 07:15:12;;;;;;;9.60;6.80;;;;;;;7.65;100.00;98066.47;4159794;28;20092;-72
2023/03/22 07:17:13;;;;;;;14.35;7.63;;;;;;;7.71;100.00;98063.03;4159383;28;20466;-72
2023/03/22 07:19:13;;;;;;;13.15;7.45;;;;;;;7.88;100.00;98068.03;4159752;28;20366;-72
2023/03/22 07:21:14;;;;;;;8.63;6.63;;;;;;;7.98;100.00;98065.78;4159390;28;20042;-72
2023/03/22 07:23:15;;;;;;;12.32;7.40;;;;;;;8.09;100.00;98077.75;4158641;28;20056;-72
2023/03/22 07:25:15;;;;;;;8.60;6.63;;;;;;;8.16;100.00;98067.63;4159468;28;20068;-72
2023/03/22 07:27:16;;;;;;;10.02;6.90;;;;;;;8.20;100.00;98062.19;4159442;28;20121;-72
2023/03/22 07:29:17;;;;;;;8.80;6.55;;;;;;;8.32;100.00;98061.97;4159772;28;20049;-72
2023/03/22 07:31:17;;;;;;;9.63;6.65;;;;;;;8.41;100.00;98057.00;4159344;28;20060;-72
2023/03/22 07:33:17;;;;;;;8.68;6.68;;;;;;;8.52;100.00;98065.38;4158812;28;20029;-72
2023/03/22 07:35:18;;;;;;;8.57;6.60;;;;;;;8.61;100.00;98065.94;4159298;28;20038;-72
2023/03/22 07:37:18;;;;;;;11.13;7.28;;;;;;;8.72;100.00;98074.31;4159079;28;20486;-72
2023/03/22 07:39:18;;;;;;;11.32;7.40;;;;;;;8.91;100.00;98057.59;4191134;28;20129;-72
2023/03/22 07:41:19;;;;;;;8.07;6.45;;;;;;;8.99;100.00;98055.72;4159504;28;20042;-72
2023/03/22 07:43:20;;;;;;;8.23;6.38;;;;;;;9.05;100.00;98062.50;4158534;28;20562;-72
2023/03/22 07:45:21;;;;;;;11.15;6.55;;;;;;;9.14;100.00;98054.69;4159257;28;20118;-72
2023/03/22 07:47:22;;;;;;;8.80;6.32;;;;;;;9.24;100.00;98054.00;4158934;28;20033;-72
2023/03/22 07:49:22;;;;;;;9.30;6.55;;;;;;;9.30;100.00;98054.47;4158829;28;20111;-72
2023/03/22 07:51:23;;;;;;;9.73;6.32;;;;;;;9.37;100.00;98050.97;4158574;28;20041;-72
2023/03/22 07:53:24;;;;;;;9.68;5.70;;;;;;;9.40;100.00;98053.75;4158808;28;20033;-72
2023/03/22 07:55:24;;;;;;;8.73;5.70;;;;;;;9.48;100.00;98049.88;4158788;28;20128;-72
2023/03/22 07:57:25;;;;;;;8.40;6.30;;;;;;;9.57;100.00;98044.03;4159153;28;20470;-72
2023/03/22 07:59:25;;;;;;;8.43;5.32;;;;;;;9.65;100.00;98039.38;4159143;28;20088;-72
2023/03/22 08:01:25;;;;;;;7.57;5.20;;;;;;;9.56;100.00;98036.94;4158846;28;20038;-72
2023/03/22 08:03:26;;;;;;;7.78;4.75;;;;;;;9.61;100.00;98042.13;4158426;28;20041;-72
2023/03/22 08:05:26;;;;;;;6.00;4.13;;;;;;;9.66;100.00;98032.69;4158671;28;20042;-72
2023/03/22 08:07:26;;;;;;;6.75;4.60;;;;;;;9.70;100.00;98034.31;4159102;28;20069;-72
2023/03/22 08:09:27;;;;;;;6.00;4.60;;;;;;;9.88;100.00;98036.41;4158597;28;20045;-72
2023/03/22 08:11:27;;;;;;;8.15;4.82;;;;;;;9.99;100.00;98037.25;4158625;28;20144;-72
2023/03/22 08:13:27;;;;;;;8.88;4.97;;;;;;;10.04;100.00;98031.38;4158666;28;20444;-72
2023/03/22 08:15:28;;;;;;;6.63;4.80;;;;;;;10.19;100.00;98032.28;4158451;28;20144;-72
2023/03/22 08:17:29;;;;;;;7.75;4.88;;;;;;;10.19;100.00;98029.50;4158885;28;20045;-72
2023/03/22 08:19:30;;;;;;;6.75;4.85;;;;;;;10.20;100.00;98031.88;4159121;28;20061;-72
2023/03/22 08:21:32;;;;;;;7.30;5.00;;;;;;;10.25;100.00;98033.50;4154443;28;20069;-72
2023/03/22 08:23:32;;;;;;;8.80;5.03;;;;;;;10.33;100.00;98035.13;4157629;28;20160;-72
2023/03/22 08:25:33;;;;;;;7.53;5.10;;;;;;;10.40;100.00;98029.63;4158252;28;20069;-72
2023/03/22 08:27:33;;;;;;;8.77;5.13;;;;;;;10.49;100.00;98046.66;4158631;28;20060;-72
2023/03/22 08:29:34;;;;;;;7.80;4.90;;;;;;;10.40;100.00;98027.66;4158384;28;20044;-72
2023/03/22 08:31:34;;;;;;;5.63;4.10;;;;;;;10.48;100.00;98034.00;4158136;28;20077;-72
2023/03/22 08:33:35;;;;;;;5.25;3.92;;;;;;;10.60;100.00;98027.38;4157437;28;20481;-72
2023/03/22 08:35:35;;;;;;;4.50;3.80;;;;;;;10.72;100.00;98032.53;4158303;28;20076;-72
2023/03/22 08:37:35;;;;;;;6.00;3.28;;;;;;;10.80;100.00;98025.84;4158334;28;20072;-72
2023/03/22 08:39:36;;;;;;;7.63;4.40;;;;;;;10.77;100.00;98025.84;4158309;28;20197;-72
2023/03/22 08:41:38;;;;;;;5.15;4.07;;;;;;;10.73;100.00;98008.44;4158386;28;20124;-72
2023/03/22 08:43:39;;;;;;;4.93;3.40;;;;;;;10.82;98.65;98017.16;4157457;28;20053;-72
2023/03/22 08:45:39;;;;;;;5.03;3.30;;;;;;;10.85;99.57;98017.19;4158194;28;20061;-72
2023/03/22 08:47:40;;;;;;;5.53;3.17;;;;;;;10.92;98.26;98014.44;4158407;28;20080;-72
2023/03/22 08:49:42;;;;;;;5.22;3.22;;;;;;;10.95;97.90;98010.09;4157473;28;20441;-72
2023/03/22 08:51:42;;;;;;;5.53;3.72;;;;;;;10.96;96.63;98006.91;4158457;28;20053;-72
2023/03/22 08:53:42;;;;;;;4.60;2.60;;;;;;;11.01;95.89;98011.28;4156611;28;20042;-72
2023/03/22 08:55:43;;;;;;;5.65;2.45;;;;;;;11.03;94.22;98006.16;4156829;28;20033;-72
2023/03/22 08:57:49;;;;;;;4.80;2.55;;;;;;;11.01;96.38;98002.19;4157715;28;20131;-72
2023/03/22 08:59:51;;;;;;;3.50;2.60;;;;;;;11.11;95.03;97990.34;4158114;28;20104;-73
2023/03/22 09:01:51;;;;;;;5.07;2.72;;;;;;;11.13;95.86;97990.72;4157737;28;20565;-73
2023/03/22 09:03:51;;;;;;;4.55;2.83;;;;;;;11.21;96.16;97993.13;4157750;28;20394;-72
2023/03/22 09:05:52;;;;;;;4.28;2.72;;;;;;;11.32;94.51;97995.09;4157710;28;20043;-72
2023/03/22 09:07:53;;;;;;;3.30;2.38;;;;;;;11.24;94.66;97978.47;4158134;28;20377;-72
2023/03/22 09:09:53;;;;;;;5.15;2.30;;;;;;;11.34;93.01;97976.13;4158005;28;20611;-72
2023/03/22 09:11:55;;;;;;;7.03;2.47;;;;;;;11.43;92.42;97984.84;4157892;28;20386;-72
2023/03/22 09:13:55;;;;;;;5.30;2.22;;;;;;;11.52;92.42;97979.69;4157735;28;20099;-72
2023/03/22 09:15:56;;;;;;;4.25;2.30;;;;;;;11.53;92.68;97970.19;4157681;28;20116;-72
2023/03/22 09:17:56;;;;;;;4.28;2.20;;;;;;;11.57;92.10;97978.47;4157807;28;20508;-72
2023/03/22 09:19:56;;;;;;;3.58;1.80;;;;;;;11.57;89.20;97972.94;4157089;28;20038;-73
2023/03/22 09:21:57;;;;;;;5.57;2.13;;;;;;;11.67;90.33;97980.47;4157607;28;20177;-73
2023/03/22 09:23:57;;;;;;;3.20;2.00;;;;;;;11.80;88.16;97970.56;4157328;28;20501;-73
2023/03/22 09:26:05;;;;;;;4.07;2.00;;;;;;;11.93;86.77;97965.41;4155797;28;20486;-72
2023/03/22 09:28:06;;;;;;;5.38;2.40;;;;;;;11.96;87.68;97967.38;4155761;28;20053;-72
2023/03/22 09:30:08;;;;;;;3.83;2.17;;;;;;;11.97;87.43;97963.41;4157390;28;20144;-73
2023/03/22 09:32:09;;;;;;;3.10;1.70;;;;;;;12.01;87.99;97961.44;4156811;28;20025;-72
2023/03/22 09:34:09;;;;;;;4.00;2.35;;;;;;;12.07;85.77;97960.59;4156221;28;20466;-73
2023/03/22 09:36:10;;;;;;;3.65;1.60;;;;;;;12.06;86.32;97961.00;4156918;28;20029;-72